Grampian, PA (16838)

5:02 AM EST on March 06, 2015 (GMT -0500)
Clearfield | Change Station
CLOSE
Current Station
Personal Weather Station
Location: Clearfield, PA
Elevation: 1127 ft
Nearby Weather Stations

Elev 1127 ft 41.02 °N, 78.46 °W | Updated 2 minutes ago

Partly Cloudy
Partly Cloudy
-7.5 °F
Feels Like -8 °F
N
0.0
Wind Variable Wind from NNW
Gusts 1.0 mph

Today
High -- | Low -- °F
--% Chance of Precip.
Yesterday
High -- | Low -- °F
Precip. -- in
6:41 AM 6:10 PM
Full, 100% visible
Pressure 30.54 in
Visibility 10.0 miles
Clouds Mostly Cloudy 100 ft
Windchill -8 °F
Dew Point -11 °F
Humidity 84%
Rainfall in
Snow Depth Not available.
UV 0.0 out of 12
Pollen .60 out of 12
Air Quality Not available.
Flu Activity Not available.
METAR KFIG 060954Z AUTO 00000KT 10SM BKN001 M19/M22 A3043 RMK AO2 SLP341 I1000 T11941217

More Conditions Fewer Conditions

Pressure 30.54 in
Visibility 10.0 miles
Clouds Mostly Cloudy 100 ft
Windchill -8 °F
Dew Point -11 °F
Humidity 84%
Rainfall in
Snow Depth Not available.
UV 0.0 out of 12
Pollen .60 out of 12
Air Quality Not available.
Flu Activity Not available.
METAR KFIG 060954Z AUTO 00000KT 10SM BKN001 M19/M22 A3043 RMK AO2 SLP341 I1000 T11941217

More Conditions Fewer Conditions

10-Day Weather Forecast

Almanac

Astronomy

Mar. 06, 2015 Rise Set
Actual Time
Civil Twilight
Nautical Twilight
Astronomical Twilight
Moon
Length of Visible Light
Length of Day
Tomorrow will be .
, % of the Moon is Illuminated

Today's Extremes

State Highs State Lows

Community

WunderPhotos

Upload Photos

1,803,216 photos uploaded!

WunderBlogs® & News

Nearby

Air Quality

  Air Quality AQ Index Pollutant
Not available.

Snow Depth

Station Depth Elevation

Earthquake Activity

City Distance Mag. Time & Date
Minimum magnitude displayed is 2.5.

Coastal Water Temperatures

Place Temperature

Nearby Weather Stations